createdAt,value
2022-11-26T00:03:49.094Z,33.47
2022-11-26T00:08:52.043Z,33.50
2022-11-26T00:13:54.992Z,33.80
2022-11-26T00:18:59.231Z,33.65
2022-11-26T00:24:02.954Z,34.05
2022-11-26T00:29:05.831Z,33.72
2022-11-26T00:34:10.069Z,34.10
2022-11-26T00:39:16.734Z,34.05
2022-11-26T00:44:22.308Z,34.00
2022-11-26T00:49:28.644Z,34.05
2022-11-26T00:54:31.610Z,33.97
2022-11-26T00:59:35.533Z,33.65
2022-11-26T01:04:40.014Z,34.15
2022-11-26T01:09:45.522Z,34.17
2022-11-26T01:14:48.419Z,33.42
2022-11-26T01:19:52.746Z,33.92
2022-11-26T01:24:55.666Z,33.47
2022-11-26T01:29:58.562Z,33.78
2022-11-26T01:35:02.772Z,34.13
2022-11-26T01:40:24.069Z,38.20
2022-11-26T01:45:27.424Z,36.17
2022-11-26T01:50:58.253Z,34.75
2022-11-26T01:56:04.805Z,34.20
2022-11-26T02:01:08.091Z,34.92
2022-11-26T02:06:18.750Z,34.60
2022-11-26T02:11:23.988Z,35.22
2022-11-26T02:16:45.255Z,35.10
2022-11-26T02:21:57.611Z,35.58
2022-11-26T02:27:36.752Z,34.92
2022-11-26T02:32:52.117Z,35.78
2022-11-26T02:37:58.936Z,34.97
2022-11-26T02:43:02.182Z,34.88
2022-11-26T02:48:12.085Z,35.05
2022-11-26T02:53:16.989Z,35.00
2022-11-26T02:58:20.391Z,35.00
2022-11-26T03:03:28.186Z,35.10
2022-11-26T03:08:33.016Z,35.67
2022-11-26T03:13:35.945Z,35.97
2022-11-26T03:18:40.206Z,34.88
2022-11-26T03:23:43.099Z,34.67
2022-11-26T03:28:46.098Z,35.85
2022-11-26T03:33:50.325Z,35.92
2022-11-26T03:38:53.184Z,34.65
2022-11-26T03:43:56.087Z,35.88
2022-11-26T03:49:00.318Z,35.70
2022-11-26T03:54:03.464Z,35.75
2022-11-26T03:59:06.421Z,35.35
2022-11-26T04:04:10.656Z,35.83
2022-11-26T04:09:14.126Z,34.72
2022-11-26T04:14:17.170Z,35.20
2022-11-26T04:19:21.497Z,35.95
2022-11-26T04:24:24.511Z,35.40
2022-11-26T04:29:27.417Z,34.85
2022-11-26T04:34:31.882Z,38.00
2022-11-26T04:39:34.912Z,35.75
2022-11-26T04:44:38.183Z,35.08
2022-11-26T04:49:42.735Z,35.63
2022-11-26T04:54:45.638Z,36.13
2022-11-26T04:59:48.483Z,34.65
2022-11-26T05:04:52.716Z,35.65
2022-11-26T05:09:55.609Z,34.92
2022-11-26T05:14:58.538Z,35.70
2022-11-26T05:20:03.214Z,34.70
2022-11-26T05:25:06.637Z,35.15
2022-11-26T05:30:10.705Z,35.33
2022-11-26T05:35:14.963Z,34.45
2022-11-26T05:40:18.049Z,34.70
2022-11-26T05:45:20.964Z,34.95
2022-11-26T05:50:25.199Z,35.72
2022-11-26T05:55:29.405Z,35.13
2022-11-26T06:00:32.333Z,34.78
2022-11-26T06:05:36.571Z,34.80
2022-11-26T06:10:39.491Z,35.00
2022-11-26T06:15:42.499Z,37.28
2022-11-26T06:20:47.005Z,37.40
2022-11-26T06:25:49.896Z,37.53
2022-11-26T06:30:52.791Z,36.28
2022-11-26T06:36:01.313Z,37.15
2022-11-26T06:41:06.268Z,36.70
2022-11-26T06:46:11.033Z,35.88
2022-11-26T06:51:20.438Z,36.15
2022-11-26T06:56:23.504Z,36.28
2022-11-26T07:01:27.776Z,36.97
2022-11-26T07:06:33.587Z,36.10
2022-11-26T07:11:37.477Z,39.47
2022-11-26T07:16:41.462Z,38.47
2022-11-26T07:21:45.719Z,38.30
2022-11-26T07:26:49.675Z,38.65
2022-11-26T07:31:52.647Z,37.13
2022-11-26T07:36:58.346Z,37.03
2022-11-26T07:42:01.399Z,36.78
2022-11-26T07:47:04.448Z,37.78
2022-11-26T07:52:08.810Z,43.20
2022-11-26T07:57:12.278Z,39.17
2022-11-26T08:02:15.651Z,44.80
2022-11-26T08:07:24.711Z,40.80
2022-11-26T08:12:30.532Z,39.33
2022-11-26T08:17:33.456Z,40.85
2022-11-26T08:22:37.685Z,41.13
2022-11-26T08:27:42.669Z,39.53
2022-11-26T08:32:45.597Z,39.65
2022-11-26T08:37:49.835Z,38.80
2022-11-26T08:42:53.932Z,38.65
2022-11-26T08:47:56.826Z,38.40
2022-11-26T08:53:01.080Z,39.33
2022-11-26T08:58:03.991Z,38.95
2022-11-26T09:03:06.894Z,38.90
2022-11-26T09:08:11.196Z,37.83
2022-11-26T09:13:21.261Z,37.55
2022-11-26T09:18:24.384Z,40.40
2022-11-26T09:23:28.636Z,39.67
2022-11-26T09:28:31.521Z,38.88
2022-11-26T09:33:34.569Z,38.45
2022-11-26T09:38:39.688Z,38.35
2022-11-26T09:43:58.570Z,36.88
2022-11-26T09:49:05.372Z,38.45
2022-11-26T09:54:15.648Z,38.22
2022-11-26T09:59:21.552Z,38.55
2022-11-26T10:04:33.077Z,38.45
2022-11-26T10:09:52.251Z,39.47
2022-11-26T10:15:01.732Z,37.83
2022-11-26T10:20:48.288Z,39.00
2022-11-26T10:25:54.685Z,40.17
2022-11-26T10:31:00.248Z,41.30
2022-11-26T10:36:05.785Z,38.95
2022-11-26T10:41:10.413Z,41.08
2022-11-26T10:46:32.668Z,39.85
2022-11-26T10:51:37.655Z,39.20
2022-11-26T10:56:45.095Z,39.13
2022-11-26T11:01:51.504Z,38.42
2022-11-26T11:06:58.097Z,37.58
2022-11-26T11:12:21.862Z,37.90
2022-11-26T11:17:33.909Z,38.97
2022-11-26T11:22:37.861Z,37.65
2022-11-26T11:27:44.419Z,37.83
2022-11-26T11:32:47.655Z,37.50
2022-11-26T11:37:51.953Z,36.92
2022-11-26T11:43:00.131Z,37.28
2022-11-26T11:48:16.989Z,36.22
2022-11-26T11:53:31.234Z,36.78
2022-11-26T11:59:07.932Z,36.22
2022-11-26T12:04:21.692Z,35.70
2022-11-26T12:09:30.711Z,36.15
2022-11-26T12:14:39.908Z,34.75
2022-11-26T12:19:49.552Z,35.15
2022-11-26T12:24:56.623Z,34.58
2022-11-26T12:30:05.104Z,34.83
2022-11-26T12:35:15.849Z,35.35
2022-11-26T12:40:29.549Z,35.25
2022-11-26T12:45:49.639Z,36.00
2022-11-26T12:50:56.983Z,35.75
2022-11-26T12:56:07.298Z,35.05
2022-11-26T13:01:12.520Z,34.83
2022-11-26T13:06:27.671Z,34.90
2022-11-26T13:11:40.697Z,35.60
2022-11-26T13:16:51.403Z,36.63
2022-11-26T13:22:12.951Z,38.25
2022-11-26T13:27:38.397Z,36.58
2022-11-26T13:33:21.932Z,37.13
2022-11-26T13:38:34.198Z,36.55
2022-11-26T13:44:04.296Z,36.67
2022-11-26T13:49:14.050Z,35.50
2022-11-26T13:54:22.367Z,35.05
2022-11-26T13:59:28.746Z,35.80
2022-11-26T14:04:54.999Z,34.95
2022-11-26T14:10:00.080Z,35.78
2022-11-26T14:15:03.180Z,35.00
2022-11-26T14:20:12.064Z,37.88
2022-11-26T14:25:15.721Z,35.92
2022-11-26T14:30:26.988Z,36.38
2022-11-26T14:35:34.856Z,36.47
2022-11-26T14:40:39.600Z,36.17
2022-11-26T14:45:43.797Z,35.72
2022-11-26T14:50:48.444Z,36.22
2022-11-26T14:55:52.125Z,36.25
2022-11-26T15:01:18.585Z,36.17
2022-11-26T15:06:26.929Z,36.17
2022-11-26T15:11:31.201Z,36.88
2022-11-26T15:16:37.809Z,37.38
2022-11-26T15:21:42.286Z,37.88
2022-11-26T15:26:48.108Z,37.35
2022-11-26T15:31:50.999Z,37.10
2022-11-26T15:36:55.513Z,35.78
2022-11-26T15:42:03.315Z,36.20
2022-11-26T15:47:06.773Z,35.72
2022-11-26T15:52:13.467Z,36.30
2022-11-26T15:57:24.165Z,36.25
2022-11-26T16:02:28.994Z,45.93
2022-11-26T16:07:34.261Z,38.92
2022-11-26T16:12:40.648Z,36.65
2022-11-26T16:17:43.893Z,35.83
2022-11-26T16:22:50.215Z,37.58
2022-11-26T16:28:08.324Z,36.00
2022-11-26T16:33:11.415Z,35.42
2022-11-26T16:38:21.544Z,40.30
2022-11-26T16:43:24.458Z,36.78
2022-11-26T16:48:28.655Z,36.70
2022-11-26T16:53:32.921Z,39.78
2022-11-26T16:58:37.670Z,36.88
2022-11-26T17:03:40.655Z,35.90
2022-11-26T17:08:49.510Z,36.10
2022-11-26T17:13:53.136Z,38.40
2022-11-26T17:18:56.004Z,37.28
2022-11-26T17:24:00.330Z,36.63
2022-11-26T17:29:03.274Z,36.80
2022-11-26T17:34:06.277Z,35.92
2022-11-26T17:39:12.330Z,36.53
2022-11-26T17:44:15.213Z,38.72
2022-11-26T17:49:18.093Z,37.28
2022-11-26T17:54:22.452Z,36.00
2022-11-26T17:59:25.861Z,35.72
2022-11-26T18:04:29.008Z,38.92
2022-11-26T18:09:33.359Z,39.10
2022-11-26T18:14:41.831Z,37.20
2022-11-26T18:19:47.164Z,38.83
2022-11-26T18:24:56.785Z,37.75
2022-11-26T18:30:00.374Z,37.58
2022-11-26T18:35:03.407Z,37.92
2022-11-26T18:40:14.388Z,40.10
2022-11-26T18:45:17.456Z,38.60
2022-11-26T18:50:20.461Z,40.33
2022-11-26T18:55:24.759Z,40.00
2022-11-26T19:00:27.649Z,39.53
2022-11-26T19:05:30.537Z,39.80
2022-11-26T19:10:34.853Z,39.25
2022-11-26T19:15:42.099Z,37.28
2022-11-26T19:20:49.177Z,36.75
2022-11-26T19:25:53.477Z,38.17
2022-11-26T19:31:01.530Z,39.28
2022-11-26T19:36:05.466Z,37.28
2022-11-26T19:41:13.092Z,39.28
2022-11-26T19:46:17.961Z,40.42
2022-11-26T19:51:22.981Z,42.00
2022-11-26T19:56:29.369Z,38.92
2022-11-26T20:01:34.094Z,38.17
2022-11-26T20:06:37.954Z,40.00
2022-11-26T20:11:42.955Z,36.45
2022-11-26T20:16:46.909Z,37.17
2022-11-26T20:21:50.967Z,37.60
2022-11-26T20:26:55.299Z,38.33
2022-11-26T20:31:58.190Z,39.25
2022-11-26T20:37:01.845Z,39.42
2022-11-26T20:42:06.240Z,40.05
2022-11-26T20:47:09.169Z,39.25
2022-11-26T20:52:14.118Z,40.20
2022-11-26T20:57:20.426Z,39.10
2022-11-26T21:02:23.412Z,41.58
2022-11-26T21:07:27.404Z,35.22
2022-11-26T21:12:32.846Z,36.92
2022-11-26T21:17:36.131Z,36.50
2022-11-26T21:22:39.478Z,39.00
2022-11-26T21:27:43.849Z,37.67
2022-11-26T21:32:46.740Z,37.97
2022-11-26T21:37:49.628Z,38.85
2022-11-26T21:42:54.148Z,38.55
2022-11-26T21:47:57.007Z,37.90
2022-11-26T21:53:01.467Z,36.08
2022-11-26T21:58:05.703Z,36.40
2022-11-26T22:03:11.585Z,34.83
2022-11-26T22:08:14.593Z,36.13
2022-11-26T22:13:18.903Z,50.45
2022-11-26T22:18:21.788Z,38.20
2022-11-26T22:23:26.921Z,36.80
2022-11-26T22:28:31.243Z,36.88
2022-11-26T22:33:34.117Z,36.22
2022-11-26T22:38:37.617Z,35.90
2022-11-26T22:43:52.379Z,36.28
2022-11-26T22:48:56.948Z,35.67
2022-11-26T22:54:01.582Z,34.50
2022-11-26T22:59:07.226Z,36.05
2022-11-26T23:04:11.658Z,35.47
2022-11-26T23:09:14.681Z,35.03
2022-11-26T23:14:18.902Z,35.40
2022-11-26T23:19:21.784Z,35.33
2022-11-26T23:24:24.876Z,34.47
2022-11-26T23:29:29.175Z,34.83
2022-11-26T23:34:32.610Z,35.70
2022-11-26T23:39:35.515Z,35.08
2022-11-26T23:44:39.750Z,34.95
2022-11-26T23:49:42.732Z,34.33
2022-11-26T23:54:45.628Z,35.80
2022-11-26T23:59:49.870Z,35.33
